sensor_id;sensor_type;location;lat;lon;timestamp;temperature;humidity
30001;DHT22;16845;48.670;9.000;2022-08-21T00:00:28;16.10;99.90
30001;DHT22;16845;48.670;9.000;2022-08-21T00:03:02;16.10;99.90
30001;DHT22;16845;48.670;9.000;2022-08-21T00:05:31;16.00;99.90
30001;DHT22;16845;48.670;9.000;2022-08-21T00:07:59;16.00;99.90
30001;DHT22;16845;48.670;9.000;2022-08-21T00:10:29;16.10;99.90
30001;DHT22;16845;48.670;9.000;2022-08-21T00:12:57;16.20;99.90
30001;DHT22;16845;48.670;9.000;2022-08-21T00:15:31;16.30;99.90
30001;DHT22;16845;48.670;9.000;2022-08-21T00:18:00;16.30;99.90
30001;DHT22;16845;48.670;9.000;2022-08-21T00:20:28;16.30;99.90
30001;DHT22;16845;48.670;9.000;2022-08-21T00:22:56;16.30;99.90
30001;DHT22;16845;48.670;9.000;2022-08-21T00:25:25;16.20;99.90
30001;DHT22;16845;48.670;9.000;2022-08-21T00:27:55;16.20;99.90
30001;DHT22;16845;48.670;9.000;2022-08-21T00:30:25;16.10;99.90
30001;DHT22;16845;48.670;9.000;2022-08-21T00:32:55;16.10;99.90
30001;DHT22;16845;48.670;9.000;2022-08-21T00:35:26;16.00;99.90
30001;DHT22;16845;48.670;9.000;2022-08-21T00:37:55;15.90;99.90
30001;DHT22;16845;48.670;9.000;2022-08-21T00:40:29;15.80;99.90
30001;DHT22;16845;48.670;9.000;2022-08-21T00:42:58;15.70;99.90
30001;DHT22;16845;48.670;9.000;2022-08-21T00:45:27;15.60;99.90
30001;DHT22;16845;48.670;9.000;2022-08-21T00:47:57;15.60;99.90
30001;DHT22;16845;48.670;9.000;2022-08-21T00:50:29;15.60;99.90
30001;DHT22;16845;48.670;9.000;2022-08-21T00:52:59;15.50;99.90
30001;DHT22;16845;48.670;9.000;2022-08-21T00:55:28;15.50;99.90
30001;DHT22;16845;48.670;9.000;2022-08-21T00:58:03;15.40;99.90
30001;DHT22;16845;48.670;9.000;2022-08-21T01:00:37;15.30;99.90
30001;DHT22;16845;48.670;9.000;2022-08-21T01:03:08;15.20;99.90
30001;DHT22;16845;48.670;9.000;2022-08-21T01:05:36;15.10;99.90
30001;DHT22;16845;48.670;9.000;2022-08-21T01:08:06;15.20;99.90
30001;DHT22;16845;48.670;9.000;2022-08-21T01:10:36;15.10;99.90
30001;DHT22;16845;48.670;9.000;2022-08-21T01:13:07;15.10;99.90
30001;DHT22;16845;48.670;9.000;2022-08-21T01:15:39;15.10;99.90
30001;DHT22;16845;48.670;9.000;2022-08-21T01:18:10;15.10;99.90
30001;DHT22;16845;48.670;9.000;2022-08-21T01:20:43;15.10;99.90
30001;DHT22;16845;48.670;9.000;2022-08-21T01:23:13;15.20;99.90
30001;DHT22;16845;48.670;9.000;2022-08-21T01:25:41;15.20;99.90
30001;DHT22;16845;48.670;9.000;2022-08-21T01:28:12;15.30;99.90
30001;DHT22;16845;48.670;9.000;2022-08-21T01:30:42;15.30;99.90
30001;DHT22;16845;48.670;9.000;2022-08-21T01:33:11;15.40;99.90
30001;DHT22;16845;48.670;9.000;2022-08-21T01:35:39;15.50;99.90
30001;DHT22;16845;48.670;9.000;2022-08-21T01:38:07;15.50;99.90
30001;DHT22;16845;48.670;9.000;2022-08-21T01:40:37;15.60;99.90
30001;DHT22;16845;48.670;9.000;2022-08-21T01:43:05;15.60;99.90
30001;DHT22;16845;48.670;9.000;2022-08-21T01:45:33;15.60;99.90
30001;DHT22;16845;48.670;9.000;2022-08-21T01:48:01;15.60;99.90
30001;DHT22;16845;48.670;9.000;2022-08-21T01:50:29;15.60;99.90
30001;DHT22;16845;48.670;9.000;2022-08-21T01:52:57;15.60;99.90
30001;DHT22;16845;48.670;9.000;2022-08-21T01:55:25;15.50;99.90
30001;DHT22;16845;48.670;9.000;2022-08-21T01:57:55;15.40;99.90
30001;DHT22;16845;48.670;9.000;2022-08-21T02:00:24;15.30;99.90
30001;DHT22;16845;48.670;9.000;2022-08-21T02:02:52;15.20;99.90
30001;DHT22;16845;48.670;9.000;2022-08-21T02:05:20;15.10;99.90
30001;DHT22;16845;48.670;9.000;2022-08-21T02:07:54;15.00;99.90
30001;DHT22;16845;48.670;9.000;2022-08-21T02:10:26;14.80;99.90
30001;DHT22;16845;48.670;9.000;2022-08-21T02:12:57;14.80;99.90
30001;DHT22;16845;48.670;9.000;2022-08-21T02:15:26;14.70;99.90
30001;DHT22;16845;48.670;9.000;2022-08-21T02:17:56;14.70;99.90
30001;DHT22;16845;48.670;9.000;2022-08-21T02:20:26;14.60;99.90
30001;DHT22;16845;48.670;9.000;2022-08-21T02:22:55;14.60;99.90
30001;DHT22;16845;48.670;9.000;2022-08-21T02:25:24;14.50;99.90
30001;DHT22;16845;48.670;9.000;2022-08-21T02:27:55;14.50;99.90
30001;DHT22;16845;48.670;9.000;2022-08-21T02:30:28;14.40;99.90
30001;DHT22;16845;48.670;9.000;2022-08-21T02:32:56;14.30;99.90
30001;DHT22;16845;48.670;9.000;2022-08-21T02:35:25;14.30;99.90
30001;DHT22;16845;48.670;9.000;2022-08-21T02:37:57;14.20;99.90
30001;DHT22;16845;48.670;9.000;2022-08-21T02:40:29;14.20;99.90
30001;DHT22;16845;48.670;9.000;2022-08-21T02:43:01;14.10;99.90
30001;DHT22;16845;48.670;9.000;2022-08-21T02:45:30;14.10;99.90
30001;DHT22;16845;48.670;9.000;2022-08-21T02:48:00;14.00;99.90
30001;DHT22;16845;48.670;9.000;2022-08-21T02:50:32;14.00;99.90
30001;DHT22;16845;48.670;9.000;2022-08-21T02:53:01;14.00;99.90
30001;DHT22;16845;48.670;9.000;2022-08-21T02:55:30;13.90;99.90
30001;DHT22;16845;48.670;9.000;2022-08-21T02:58:01;13.90;99.90
30001;DHT22;16845;48.670;9.000;2022-08-21T03:00:31;14.00;99.90
30001;DHT22;16845;48.670;9.000;2022-08-21T03:03:00;14.00;99.90
30001;DHT22;16845;48.670;9.000;2022-08-21T03:05:30;14.00;99.90
30001;DHT22;16845;48.670;9.000;2022-08-21T03:07:59;14.00;99.90
30001;DHT22;16845;48.670;9.000;2022-08-21T03:10:27;13.90;99.90
30001;DHT22;16845;48.670;9.000;2022-08-21T03:12:55;13.90;99.90
30001;DHT22;16845;48.670;9.000;2022-08-21T03:15:24;14.00;99.90
30001;DHT22;16845;48.670;9.000;2022-08-21T03:17:52;14.00;99.90
30001;DHT22;16845;48.670;9.000;2022-08-21T03:20:25;14.00;99.90
30001;DHT22;16845;48.670;9.000;2022-08-21T03:22:54;13.90;99.90
30001;DHT22;16845;48.670;9.000;2022-08-21T03:25:24;13.80;99.90
30001;DHT22;16845;48.670;9.000;2022-08-21T03:28:08;13.80;99.90
30001;DHT22;16845;48.670;9.000;2022-08-21T03:30:41;13.70;99.90
30001;DHT22;16845;48.670;9.000;2022-08-21T03:33:09;13.70;99.90
30001;DHT22;16845;48.670;9.000;2022-08-21T03:35:41;13.70;99.90
30001;DHT22;16845;48.670;9.000;2022-08-21T03:38:10;13.70;99.90
30001;DHT22;16845;48.670;9.000;2022-08-21T03:40:40;13.80;99.90
30001;DHT22;16845;48.670;9.000;2022-08-21T03:43:08;13.70;99.90
30001;DHT22;16845;48.670;9.000;2022-08-21T03:45:37;13.70;99.90
30001;DHT22;16845;48.670;9.000;2022-08-21T03:48:07;13.60;99.90
30001;DHT22;16845;48.670;9.000;2022-08-21T03:50:38;13.50;99.90
30001;DHT22;16845;48.670;9.000;2022-08-21T03:53:07;13.50;99.90
30001;DHT22;16845;48.670;9.000;2022-08-21T03:55:43;13.40;99.90
30001;DHT22;16845;48.670;9.000;2022-08-21T03:58:12;13.50;99.90
30001;DHT22;16845;48.670;9.000;2022-08-21T04:00:43;13.50;99.90
30001;DHT22;16845;48.670;9.000;2022-08-21T04:03:13;13.60;99.90
30001;DHT22;16845;48.670;9.000;2022-08-21T04:05:41;13.60;99.90
30001;DHT22;16845;48.670;9.000;2022-08-21T04:08:09;13.50;99.90
30001;DHT22;16845;48.670;9.000;2022-08-21T04:10:38;13.50;99.90
30001;DHT22;16845;48.670;9.000;2022-08-21T04:13:07;13.40;99.90
30001;DHT22;16845;48.670;9.000;2022-08-21T04:15:35;13.30;99.90
30001;DHT22;16845;48.670;9.000;2022-08-21T04:18:05;13.30;99.90
30001;DHT22;16845;48.670;9.000;2022-08-21T04:20:34;13.20;99.90
30001;DHT22;16845;48.670;9.000;2022-08-21T04:23:03;13.10;99.90
30001;DHT22;16845;48.670;9.000;2022-08-21T04:25:31;13.00;99.90
30001;DHT22;16845;48.670;9.000;2022-08-21T04:27:59;13.00;99.90
30001;DHT22;16845;48.670;9.000;2022-08-21T04:30:28;12.90;99.90
30001;DHT22;16845;48.670;9.000;2022-08-21T04:32:57;12.90;99.90
30001;DHT22;16845;48.670;9.000;2022-08-21T04:35:27;12.90;99.90
30001;DHT22;16845;48.670;9.000;2022-08-21T04:37:57;12.90;99.90
30001;DHT22;16845;48.670;9.000;2022-08-21T04:40:26;12.90;99.90
30001;DHT22;16845;48.670;9.000;2022-08-21T04:43:00;12.90;99.90
30001;DHT22;16845;48.670;9.000;2022-08-21T04:45:32;12.90;99.90
30001;DHT22;16845;48.670;9.000;2022-08-21T04:48:03;13.00;99.90
30001;DHT22;16845;48.670;9.000;2022-08-21T04:50:39;12.90;99.90
30001;DHT22;16845;48.670;9.000;2022-08-21T04:53:16;12.90;99.90
30001;DHT22;16845;48.670;9.000;2022-08-21T04:55:45;13.00;99.90
30001;DHT22;16845;48.670;9.000;2022-08-21T04:58:17;13.00;99.90
30001;DHT22;16845;48.670;9.000;2022-08-21T05:00:46;13.10;99.90
30001;DHT22;16845;48.670;9.000;2022-08-21T05:03:16;13.10;99.90
30001;DHT22;16845;48.670;9.000;2022-08-21T05:05:45;13.20;99.90
30001;DHT22;16845;48.670;9.000;2022-08-21T05:08:18;13.30;99.90
30001;DHT22;16845;48.670;9.000;2022-08-21T05:10:47;13.40;99.90
30001;DHT22;16845;48.670;9.000;2022-08-21T05:13:16;13.50;99.90
30001;DHT22;16845;48.670;9.000;2022-08-21T05:15:44;13.50;99.90
30001;DHT22;16845;48.670;9.000;2022-08-21T05:18:12;13.60;99.90
30001;DHT22;16845;48.670;9.000;2022-08-21T05:20:39;13.70;99.90
30001;DHT22;16845;48.670;9.000;2022-08-21T05:23:08;13.80;99.90
30001;DHT22;16845;48.670;9.000;2022-08-21T05:25:38;14.00;99.90
30001;DHT22;16845;48.670;9.000;2022-08-21T05:28:07;14.10;99.90
30001;DHT22;16845;48.670;9.000;2022-08-21T05:30:36;14.20;99.90
30001;DHT22;16845;48.670;9.000;2022-08-21T05:33:05;14.30;99.90
30001;DHT22;16845;48.670;9.000;2022-08-21T05:35:34;14.40;99.90
30001;DHT22;16845;48.670;9.000;2022-08-21T05:38:03;14.50;99.90
30001;DHT22;16845;48.670;9.000;2022-08-21T05:40:31;14.60;99.90
30001;DHT22;16845;48.670;9.000;2022-08-21T05:43:01;14.80;99.90
30001;DHT22;16845;48.670;9.000;2022-08-21T05:45:31;14.90;99.90
30001;DHT22;16845;48.670;9.000;2022-08-21T05:48:11;15.00;99.90
30001;DHT22;16845;48.670;9.000;2022-08-21T05:50:40;15.20;99.90
30001;DHT22;16845;48.670;9.000;2022-08-21T05:53:08;15.40;99.90
30001;DHT22;16845;48.670;9.000;2022-08-21T05:55:37;15.50;99.90
30001;DHT22;16845;48.670;9.000;2022-08-21T05:58:14;15.70;99.90
30001;DHT22;16845;48.670;9.000;2022-08-21T06:00:42;15.80;99.90
30001;DHT22;16845;48.670;9.000;2022-08-21T06:03:12;15.80;99.90
30001;DHT22;16845;48.670;9.000;2022-08-21T06:05:40;16.00;99.90
30001;DHT22;16845;48.670;9.000;2022-08-21T06:08:08;16.10;99.90
30001;DHT22;16845;48.670;9.000;2022-08-21T06:10:36;16.20;99.90
30001;DHT22;16845;48.670;9.000;2022-08-21T06:13:04;16.50;99.90
30001;DHT22;16845;48.670;9.000;2022-08-21T06:15:34;16.60;99.90
30001;DHT22;16845;48.670;9.000;2022-08-21T06:18:02;16.70;99.90
30001;DHT22;16845;48.670;9.000;2022-08-21T06:20:30;17.00;99.90
30001;DHT22;16845;48.670;9.000;2022-08-21T06:22:58;17.10;99.90
30001;DHT22;16845;48.670;9.000;2022-08-21T06:25:26;17.30;99.90
30001;DHT22;16845;48.670;9.000;2022-08-21T06:28:00;17.60;99.90
30001;DHT22;16845;48.670;9.000;2022-08-21T06:30:28;17.90;99.90
30001;DHT22;16845;48.670;9.000;2022-08-21T06:32:58;18.40;99.90
30001;DHT22;16845;48.670;9.000;2022-08-21T06:35:26;18.60;99.90
30001;DHT22;16845;48.670;9.000;2022-08-21T06:37:55;18.80;99.90
30001;DHT22;16845;48.670;9.000;2022-08-21T06:40:24;19.10;99.90
30001;DHT22;16845;48.670;9.000;2022-08-21T06:42:52;19.40;99.90
30001;DHT22;16845;48.670;9.000;2022-08-21T06:45:21;19.60;99.90
30001;DHT22;16845;48.670;9.000;2022-08-21T06:47:49;19.80;99.90
30001;DHT22;16845;48.670;9.000;2022-08-21T06:50:19;20.10;99.90
30001;DHT22;16845;48.670;9.000;2022-08-21T06:52:47;20.30;99.90
30001;DHT22;16845;48.670;9.000;2022-08-21T06:55:15;20.60;99.90
30001;DHT22;16845;48.670;9.000;2022-08-21T06:57:48;21.10;99.90
30001;DHT22;16845;48.670;9.000;2022-08-21T07:00:18;21.60;99.90
30001;DHT22;16845;48.670;9.000;2022-08-21T07:02:46;22.00;99.90
30001;DHT22;16845;48.670;9.000;2022-08-21T07:05:14;22.30;99.90
30001;DHT22;16845;48.670;9.000;2022-08-21T07:07:45;22.50;99.90
30001;DHT22;16845;48.670;9.000;2022-08-21T07:10:14;22.90;99.90
30001;DHT22;16845;48.670;9.000;2022-08-21T07:12:48;23.40;99.90
30001;DHT22;16845;48.670;9.000;2022-08-21T07:15:26;23.80;99.90
30001;DHT22;16845;48.670;9.000;2022-08-21T07:17:56;23.70;99.90
30001;DHT22;16845;48.670;9.000;2022-08-21T07:20:25;23.60;99.90
30001;DHT22;16845;48.670;9.000;2022-08-21T07:22:54;24.00;99.90
30001;DHT22;16845;48.670;9.000;2022-08-21T07:25:23;24.20;99.90
30001;DHT22;16845;48.670;9.000;2022-08-21T07:27:51;24.90;99.90
30001;DHT22;16845;48.670;9.000;2022-08-21T07:30:19;25.00;99.90
30001;DHT22;16845;48.670;9.000;2022-08-21T07:32:47;25.20;99.90
30001;DHT22;16845;48.670;9.000;2022-08-21T07:35:16;25.50;99.80
30001;DHT22;16845;48.670;9.000;2022-08-21T07:37:45;25.30;99.50
30001;DHT22;16845;48.670;9.000;2022-08-21T07:40:15;25.80;99.60
30001;DHT22;16845;48.670;9.000;2022-08-21T07:42:45;26.10;98.70
30001;DHT22;16845;48.670;9.000;2022-08-21T07:45:16;26.30;98.00
30001;DHT22;16845;48.670;9.000;2022-08-21T07:47:45;26.10;97.20
30001;DHT22;16845;48.670;9.000;2022-08-21T07:50:13;26.30;97.40
30001;DHT22;16845;48.670;9.000;2022-08-21T07:52:42;26.60;96.90
30001;DHT22;16845;48.670;9.000;2022-08-21T07:55:13;27.40;96.20
30001;DHT22;16845;48.670;9.000;2022-08-21T07:57:43;27.70;95.50
30001;DHT22;16845;48.670;9.000;2022-08-21T08:00:14;27.40;95.40
30001;DHT22;16845;48.670;9.000;2022-08-21T08:02:44;27.70;95.40
30001;DHT22;16845;48.670;9.000;2022-08-21T08:05:13;27.80;94.10
30001;DHT22;16845;48.670;9.000;2022-08-21T08:07:40;27.70;93.10
30001;DHT22;16845;48.670;9.000;2022-08-21T08:10:10;28.00;95.30
30001;DHT22;16845;48.670;9.000;2022-08-21T08:12:39;28.10;93.20
30001;DHT22;16845;48.670;9.000;2022-08-21T08:15:11;29.00;93.10
30001;DHT22;16845;48.670;9.000;2022-08-21T08:17:39;28.70;92.60
30001;DHT22;16845;48.670;9.000;2022-08-21T08:20:09;28.30;93.10
30001;DHT22;16845;48.670;9.000;2022-08-21T08:22:38;28.50;91.70
30001;DHT22;16845;48.670;9.000;2022-08-21T08:25:09;29.50;91.90
30001;DHT22;16845;48.670;9.000;2022-08-21T08:27:38;29.70;89.80
30001;DHT22;16845;48.670;9.000;2022-08-21T08:30:10;29.80;87.00
30001;DHT22;16845;48.670;9.000;2022-08-21T08:32:38;30.00;85.50
30001;DHT22;16845;48.670;9.000;2022-08-21T08:35:08;30.40;86.00
30001;DHT22;16845;48.670;9.000;2022-08-21T08:37:36;31.00;83.40
30001;DHT22;16845;48.670;9.000;2022-08-21T08:40:10;30.70;79.30
30001;DHT22;16845;48.670;9.000;2022-08-21T08:42:39;30.50;83.40
30001;DHT22;16845;48.670;9.000;2022-08-21T08:45:11;31.40;79.20
30001;DHT22;16845;48.670;9.000;2022-08-21T08:47:42;31.40;76.10
30001;DHT22;16845;48.670;9.000;2022-08-21T08:50:18;30.70;76.70
30001;DHT22;16845;48.670;9.000;2022-08-21T08:52:51;30.60;77.20
30001;DHT22;16845;48.670;9.000;2022-08-21T08:55:23;30.40;76.20
30001;DHT22;16845;48.670;9.000;2022-08-21T08:57:54;30.60;75.70
30001;DHT22;16845;48.670;9.000;2022-08-21T09:00:24;30.30;76.70
30001;DHT22;16845;48.670;9.000;2022-08-21T09:02:55;29.90;78.20
30001;DHT22;16845;48.670;9.000;2022-08-21T09:05:25;30.70;76.50
30001;DHT22;16845;48.670;9.000;2022-08-21T09:08:18;30.60;75.50
30001;DHT22;16845;48.670;9.000;2022-08-21T09:10:57;29.00;80.40
30001;DHT22;16845;48.670;9.000;2022-08-21T09:13:35;27.90;78.10
30001;DHT22;16845;48.670;9.000;2022-08-21T09:16:08;26.50;80.50
30001;DHT22;16845;48.670;9.000;2022-08-21T09:18:47;25.50;84.50
30001;DHT22;16845;48.670;9.000;2022-08-21T09:21:28;24.80;85.60
30001;DHT22;16845;48.670;9.000;2022-08-21T09:24:02;24.40;88.10
30001;DHT22;16845;48.670;9.000;2022-08-21T09:26:47;24.00;88.90
30001;DHT22;16845;48.670;9.000;2022-08-21T09:29:20;23.70;92.60
30001;DHT22;16845;48.670;9.000;2022-08-21T09:31:51;23.40;93.40
30001;DHT22;16845;48.670;9.000;2022-08-21T09:34:25;23.20;92.60
30001;DHT22;16845;48.670;9.000;2022-08-21T09:36:53;23.40;95.10
30001;DHT22;16845;48.670;9.000;2022-08-21T09:39:24;24.70;92.00
30001;DHT22;16845;48.670;9.000;2022-08-21T09:41:57;25.20;90.90
30001;DHT22;16845;48.670;9.000;2022-08-21T09:44:26;25.00;92.50
30001;DHT22;16845;48.670;9.000;2022-08-21T09:46:56;24.90;92.70
30001;DHT22;16845;48.670;9.000;2022-08-21T09:49:28;24.60;94.10
30001;DHT22;16845;48.670;9.000;2022-08-21T09:51:57;24.30;91.50
30001;DHT22;16845;48.670;9.000;2022-08-21T09:54:30;24.00;94.50
30001;DHT22;16845;48.670;9.000;2022-08-21T09:57:00;23.90;93.30
30001;DHT22;16845;48.670;9.000;2022-08-21T09:59:46;23.90;91.00
30001;DHT22;16845;48.670;9.000;2022-08-21T10:02:27;25.40;91.00
30001;DHT22;16845;48.670;9.000;2022-08-21T10:05:00;25.90;89.30
30001;DHT22;16845;48.670;9.000;2022-08-21T10:07:30;25.80;90.10
30001;DHT22;16845;48.670;9.000;2022-08-21T10:10:00;26.40;88.70
30001;DHT22;16845;48.670;9.000;2022-08-21T10:12:36;27.80;86.80
30001;DHT22;16845;48.670;9.000;2022-08-21T10:15:13;29.00;84.20
30001;DHT22;16845;48.670;9.000;2022-08-21T10:17:51;28.90;80.40
30001;DHT22;16845;48.670;9.000;2022-08-21T10:20:24;28.20;85.70
30001;DHT22;16845;48.670;9.000;2022-08-21T10:23:03;27.30;82.20
30001;DHT22;16845;48.670;9.000;2022-08-21T10:25:40;26.60;85.60
30001;DHT22;16845;48.670;9.000;2022-08-21T10:28:29;26.50;85.50
30001;DHT22;16845;48.670;9.000;2022-08-21T10:31:02;27.00;84.40
30001;DHT22;16845;48.670;9.000;2022-08-21T10:33:43;27.70;86.90
30001;DHT22;16845;48.670;9.000;2022-08-21T10:36:16;29.30;80.40
30001;DHT22;16845;48.670;9.000;2022-08-21T10:38:57;31.00;78.80
30001;DHT22;16845;48.670;9.000;2022-08-21T10:42:02;32.90;75.20
30001;DHT22;16845;48.670;9.000;2022-08-21T10:44:37;31.80;72.60
30001;DHT22;16845;48.670;9.000;2022-08-21T10:47:10;31.00;74.60
30001;DHT22;16845;48.670;9.000;2022-08-21T10:49:47;31.10;74.20
30001;DHT22;16845;48.670;9.000;2022-08-21T10:52:36;30.20;73.60
30001;DHT22;16845;48.670;9.000;2022-08-21T10:55:14;29.50;72.80
30001;DHT22;16845;48.670;9.000;2022-08-21T10:57:46;28.70;73.40
30001;DHT22;16845;48.670;9.000;2022-08-21T11:00:16;29.00;74.70
30001;DHT22;16845;48.670;9.000;2022-08-21T11:02:51;29.70;73.70
30001;DHT22;16845;48.670;9.000;2022-08-21T11:05:31;29.50;74.20
30001;DHT22;16845;48.670;9.000;2022-08-21T11:08:03;29.90;74.70
30001;DHT22;16845;48.670;9.000;2022-08-21T11:10:37;30.90;71.10
30001;DHT22;16845;48.670;9.000;2022-08-21T11:13:29;30.90;69.90
30001;DHT22;16845;48.670;9.000;2022-08-21T11:16:04;29.80;71.80
30001;DHT22;16845;48.670;9.000;2022-08-21T11:18:36;28.60;73.20
30001;DHT22;16845;48.670;9.000;2022-08-21T11:21:15;27.80;75.50
30001;DHT22;16845;48.670;9.000;2022-08-21T11:23:49;27.40;75.60
30001;DHT22;16845;48.670;9.000;2022-08-21T11:26:24;26.80;78.00
30001;DHT22;16845;48.670;9.000;2022-08-21T11:28:58;26.40;78.60
30001;DHT22;16845;48.670;9.000;2022-08-21T11:31:37;26.60;77.60
30001;DHT22;16845;48.670;9.000;2022-08-21T11:34:18;25.90;78.30
30001;DHT22;16845;48.670;9.000;2022-08-21T11:36:56;25.70;81.20
30001;DHT22;16845;48.670;9.000;2022-08-21T11:39:30;25.20;79.60
30001;DHT22;16845;48.670;9.000;2022-08-21T11:42:07;25.00;80.60
30001;DHT22;16845;48.670;9.000;2022-08-21T11:44:48;24.70;80.00
30001;DHT22;16845;48.670;9.000;2022-08-21T11:47:28;24.90;84.80
30001;DHT22;16845;48.670;9.000;2022-08-21T11:50:11;25.00;86.10
30001;DHT22;16845;48.670;9.000;2022-08-21T11:53:05;25.00;83.80
30001;DHT22;16845;48.670;9.000;2022-08-21T11:55:39;24.80;84.30
30001;DHT22;16845;48.670;9.000;2022-08-21T11:58:14;24.80;88.80
30001;DHT22;16845;48.670;9.000;2022-08-21T12:00:48;25.00;87.90
30001;DHT22;16845;48.670;9.000;2022-08-21T12:03:26;25.30;84.30
30001;DHT22;16845;48.670;9.000;2022-08-21T12:05:57;25.40;82.90
30001;DHT22;16845;48.670;9.000;2022-08-21T12:08:30;25.30;83.00
30001;DHT22;16845;48.670;9.000;2022-08-21T12:11:06;25.30;81.50
30001;DHT22;16845;48.670;9.000;2022-08-21T12:13:37;25.40;84.70
30001;DHT22;16845;48.670;9.000;2022-08-21T12:16:13;25.20;82.10
30001;DHT22;16845;48.670;9.000;2022-08-21T12:18:43;25.70;83.50
30001;DHT22;16845;48.670;9.000;2022-08-21T12:21:21;26.60;80.50
30001;DHT22;16845;48.670;9.000;2022-08-21T12:24:02;27.50;79.40
30001;DHT22;16845;48.670;9.000;2022-08-21T12:26:34;28.50;78.80
30001;DHT22;16845;48.670;9.000;2022-08-21T12:29:11;29.10;76.30
30001;DHT22;16845;48.670;9.000;2022-08-21T12:31:58;28.30;76.70
30001;DHT22;16845;48.670;9.000;2022-08-21T12:34:36;27.50;77.70
30001;DHT22;16845;48.670;9.000;2022-08-21T12:37:16;27.20;79.70
30001;DHT22;16845;48.670;9.000;2022-08-21T12:39:49;27.00;80.10
30001;DHT22;16845;48.670;9.000;2022-08-21T12:42:21;26.80;78.30
30001;DHT22;16845;48.670;9.000;2022-08-21T12:44:53;25.90;79.90
30001;DHT22;16845;48.670;9.000;2022-08-21T12:47:28;25.40;81.90
30001;DHT22;16845;48.670;9.000;2022-08-21T12:50:01;25.20;84.60
30001;DHT22;16845;48.670;9.000;2022-08-21T12:52:33;24.80;84.30
30001;DHT22;16845;48.670;9.000;2022-08-21T12:55:11;24.60;85.90
30001;DHT22;16845;48.670;9.000;2022-08-21T12:57:40;24.40;86.10
30001;DHT22;16845;48.670;9.000;2022-08-21T13:00:12;24.40;85.90
30001;DHT22;16845;48.670;9.000;2022-08-21T13:02:45;24.30;86.00
30001;DHT22;16845;48.670;9.000;2022-08-21T13:05:19;24.40;84.50
30001;DHT22;16845;48.670;9.000;2022-08-21T13:07:51;24.60;84.50
30001;DHT22;16845;48.670;9.000;2022-08-21T13:10:23;24.70;89.70
30001;DHT22;16845;48.670;9.000;2022-08-21T13:12:54;26.40;85.30
30001;DHT22;16845;48.670;9.000;2022-08-21T13:15:26;29.40;77.80
30001;DHT22;16845;48.670;9.000;2022-08-21T13:17:59;32.50;74.30
30001;DHT22;16845;48.670;9.000;2022-08-21T13:20:31;34.40;67.30
30001;DHT22;16845;48.670;9.000;2022-08-21T13:23:02;35.70;63.20
30001;DHT22;16845;48.670;9.000;2022-08-21T13:25:36;35.80;64.90
30001;DHT22;16845;48.670;9.000;2022-08-21T13:28:06;36.30;59.80
30001;DHT22;16845;48.670;9.000;2022-08-21T13:30:39;34.50;61.90
30001;DHT22;16845;48.670;9.000;2022-08-21T13:33:07;33.60;64.80
30001;DHT22;16845;48.670;9.000;2022-08-21T13:35:47;31.90;66.90
30001;DHT22;16845;48.670;9.000;2022-08-21T13:38:17;30.10;68.60
30001;DHT22;16845;48.670;9.000;2022-08-21T13:40:56;29.30;70.90
30001;DHT22;16845;48.670;9.000;2022-08-21T13:43:27;28.70;70.30
30001;DHT22;16845;48.670;9.000;2022-08-21T13:45:56;28.60;73.00
30001;DHT22;16845;48.670;9.000;2022-08-21T13:48:27;27.90;72.70
30001;DHT22;16845;48.670;9.000;2022-08-21T13:50:57;27.40;73.50
30001;DHT22;16845;48.670;9.000;2022-08-21T13:53:29;27.00;74.00
30001;DHT22;16845;48.670;9.000;2022-08-21T13:55:59;26.80;75.80
30001;DHT22;16845;48.670;9.000;2022-08-21T13:58:29;26.80;75.20
30001;DHT22;16845;48.670;9.000;2022-08-21T14:01:00;26.70;75.60
30001;DHT22;16845;48.670;9.000;2022-08-21T14:03:35;26.30;76.70
30001;DHT22;16845;48.670;9.000;2022-08-21T14:06:12;26.20;77.60
30001;DHT22;16845;48.670;9.000;2022-08-21T14:08:40;26.00;79.30
30001;DHT22;16845;48.670;9.000;2022-08-21T14:11:12;26.10;76.50
30001;DHT22;16845;48.670;9.000;2022-08-21T14:13:42;26.00;77.30
30001;DHT22;16845;48.670;9.000;2022-08-21T14:16:18;26.00;76.60
30001;DHT22;16845;48.670;9.000;2022-08-21T14:18:49;25.90;76.10
30001;DHT22;16845;48.670;9.000;2022-08-21T14:21:29;26.00;76.60
30001;DHT22;16845;48.670;9.000;2022-08-21T14:24:06;26.00;74.20
30001;DHT22;16845;48.670;9.000;2022-08-21T14:26:42;26.00;75.20
30001;DHT22;16845;48.670;9.000;2022-08-21T14:29:13;26.10;74.60
30001;DHT22;16845;48.670;9.000;2022-08-21T14:31:42;25.90;75.20
30001;DHT22;16845;48.670;9.000;2022-08-21T14:34:12;25.90;74.70
30001;DHT22;16845;48.670;9.000;2022-08-21T14:36:46;26.00;75.60
30001;DHT22;16845;48.670;9.000;2022-08-21T14:39:14;25.80;75.80
30001;DHT22;16845;48.670;9.000;2022-08-21T14:41:44;25.70;76.00
30001;DHT22;16845;48.670;9.000;2022-08-21T14:44:15;25.30;76.30
30001;DHT22;16845;48.670;9.000;2022-08-21T14:46:44;25.00;76.60
30001;DHT22;16845;48.670;9.000;2022-08-21T14:49:23;24.80;77.00
30001;DHT22;16845;48.670;9.000;2022-08-21T14:51:52;24.70;78.40
30001;DHT22;16845;48.670;9.000;2022-08-21T14:54:24;24.50;80.50
30001;DHT22;16845;48.670;9.000;2022-08-21T14:57:00;24.40;77.40
30001;DHT22;16845;48.670;9.000;2022-08-21T14:59:29;24.30;79.70
30001;DHT22;16845;48.670;9.000;2022-08-21T15:01:58;24.20;79.60
30001;DHT22;16845;48.670;9.000;2022-08-21T15:04:26;24.20;79.20
30001;DHT22;16845;48.670;9.000;2022-08-21T15:06:54;24.40;80.20
30001;DHT22;16845;48.670;9.000;2022-08-21T15:09:22;24.50;79.30
30001;DHT22;16845;48.670;9.000;2022-08-21T15:11:51;24.60;79.40
30001;DHT22;16845;48.670;9.000;2022-08-21T15:14:24;24.80;79.50
30001;DHT22;16845;48.670;9.000;2022-08-21T15:16:52;24.90;79.80
30001;DHT22;16845;48.670;9.000;2022-08-21T15:19:21;25.00;78.20
30001;DHT22;16845;48.670;9.000;2022-08-21T15:21:49;25.00;78.30
30001;DHT22;16845;48.670;9.000;2022-08-21T15:24:17;25.10;78.50
30001;DHT22;16845;48.670;9.000;2022-08-21T15:26:45;25.20;78.50
30001;DHT22;16845;48.670;9.000;2022-08-21T15:29:13;25.20;77.70
30001;DHT22;16845;48.670;9.000;2022-08-21T15:31:55;25.20;77.80
30001;DHT22;16845;48.670;9.000;2022-08-21T15:34:24;25.30;77.20
30001;DHT22;16845;48.670;9.000;2022-08-21T15:36:54;25.30;78.40
30001;DHT22;16845;48.670;9.000;2022-08-21T15:39:23;25.30;78.00
30001;DHT22;16845;48.670;9.000;2022-08-21T15:41:57;25.40;76.80
30001;DHT22;16845;48.670;9.000;2022-08-21T15:44:36;25.40;77.50
30001;DHT22;16845;48.670;9.000;2022-08-21T15:47:08;25.60;77.10
30001;DHT22;16845;48.670;9.000;2022-08-21T15:49:39;26.20;75.30
30001;DHT22;16845;48.670;9.000;2022-08-21T15:52:09;27.00;74.30
30001;DHT22;16845;48.670;9.000;2022-08-21T15:54:37;27.80;74.10
30001;DHT22;16845;48.670;9.000;2022-08-21T15:57:05;27.60;72.00